Terminal Aerodrome Forecast
Issued by NWS

Current Version | Previous Version | Text Only | Print | Product List | Glossary Off
Versions: 1 2 3 4 5 6 7 8 9 10 11 12 13 14 15 16 17 18 19 20 21 22 23 24 25 26 27 28 29 30 31 32 33 34 35 36

000
FTUS41 KRNK 190521 AAA
TAFLWB
TAF AMD
KLWB 190521Z 1905/1924 00000KT 1SM BR SCT001
      TEMPO 1905/1907 1/4SM FG VV001
     FM190700 00000KT 1/4SM FG VV001
     FM191300 00000KT P6SM FEW045=

USA.gov is the U.S. government's official web portal to all federal, state and local government web resources and services.